createdAt,value
2022-12-17T00:01:05.649Z,-1.60
2022-12-17T00:04:10.315Z,-1.60
2022-12-17T00:07:16.909Z,-1.60
2022-12-17T00:10:21.801Z,-1.60
2022-12-17T00:13:39.180Z,-1.50
2022-12-17T00:16:46.198Z,-1.50
2022-12-17T00:19:50.991Z,-1.50
2022-12-17T00:22:58.306Z,-1.50
2022-12-17T00:26:02.792Z,-1.50
2022-12-17T00:29:07.395Z,-1.50
2022-12-17T00:32:12.048Z,-1.50
2022-12-17T00:35:16.759Z,-1.50
2022-12-17T00:38:22.792Z,-1.50
2022-12-17T00:41:27.389Z,-1.40
2022-12-17T00:44:28.413Z,-1.50
2022-12-17T00:47:38.389Z,-1.40
2022-12-17T00:50:42.993Z,-1.40
2022-12-17T00:53:49.085Z,-1.40
2022-12-17T00:56:53.492Z,-1.30
2022-12-17T01:00:00.956Z,-1.30
2022-12-17T01:03:05.562Z,-1.30
2022-12-17T01:06:09.863Z,-1.20
2022-12-17T01:09:15.812Z,-1.30
2022-12-17T01:12:20.243Z,-1.20
2022-12-17T01:15:25.548Z,-1.20
2022-12-17T01:18:36.886Z,-1.20
2022-12-17T01:21:41.286Z,-1.20
2022-12-17T01:24:47.192Z,-1.20
2022-12-17T01:27:51.725Z,-1.30
2022-12-17T01:30:57.627Z,-1.30
2022-12-17T01:34:02.245Z,-1.40
2022-12-17T01:37:06.804Z,-1.40
2022-12-17T01:40:12.965Z,-1.40
2022-12-17T01:43:20.357Z,-1.40
2022-12-17T01:46:26.719Z,-1.40
2022-12-17T01:49:31.940Z,-1.40
2022-12-17T01:52:36.834Z,-1.50
2022-12-17T01:55:46.061Z,-1.50
2022-12-17T01:58:50.934Z,-1.40
2022-12-17T02:01:56.264Z,-1.50
2022-12-17T02:05:01.441Z,-1.40
2022-12-17T02:08:13.114Z,-1.30
2022-12-17T02:11:38.645Z,-1.40
2022-12-17T02:14:51.000Z,-1.50
2022-12-17T02:18:01.578Z,-1.50
2022-12-17T02:21:09.049Z,-1.40
2022-12-17T02:24:23.599Z,-1.60
2022-12-17T02:27:31.681Z,-1.70
2022-12-17T02:30:36.725Z,-1.70
2022-12-17T02:33:41.700Z,-1.70
2022-12-17T02:36:46.847Z,-1.70
2022-12-17T02:39:52.614Z,-1.70
2022-12-17T02:43:04.354Z,-1.70
2022-12-17T02:46:11.808Z,-1.70
2022-12-17T02:49:16.593Z,-1.70
2022-12-17T02:52:22.582Z,-1.70
2022-12-17T02:55:27.967Z,-1.70
2022-12-17T02:58:33.404Z,-1.80
2022-12-17T03:01:38.865Z,-1.80
2022-12-17T03:04:43.641Z,-1.80
2022-12-17T03:07:48.081Z,-1.80
2022-12-17T03:10:52.423Z,-1.80
2022-12-17T03:14:00.700Z,-1.80
2022-12-17T03:17:06.053Z,-1.80
2022-12-17T03:20:10.344Z,-1.80
2022-12-17T03:23:21.377Z,-1.70
2022-12-17T03:26:28.365Z,-1.80
2022-12-17T03:29:34.224Z,-1.80
2022-12-17T03:32:52.991Z,-1.80
2022-12-17T03:35:57.737Z,-1.80
2022-12-17T03:39:02.409Z,-1.70
2022-12-17T03:42:07.165Z,-1.80
2022-12-17T03:45:13.189Z,-1.80
2022-12-17T03:48:25.121Z,-1.80
2022-12-17T03:51:29.446Z,-1.80
2022-12-17T03:54:33.798Z,-1.90
2022-12-17T03:57:38.245Z,-1.90
2022-12-17T04:00:44.236Z,-1.70
2022-12-17T04:03:48.796Z,-1.90
2022-12-17T04:06:53.183Z,-1.90
2022-12-17T04:09:57.640Z,-1.90
2022-12-17T04:13:01.986Z,-1.90
2022-12-17T04:16:08.038Z,-1.90
2022-12-17T04:19:13.445Z,-1.80
2022-12-17T04:22:17.954Z,-1.90
2022-12-17T04:25:22.815Z,-1.90
2022-12-17T04:28:27.251Z,-2.00
2022-12-17T04:31:45.044Z,-2.00
2022-12-17T04:34:50.200Z,-2.00
2022-12-17T04:37:54.554Z,-2.00
2022-12-17T04:40:59.553Z,-1.90
2022-12-17T04:44:04.052Z,-1.90
2022-12-17T04:47:09.933Z,-2.00
2022-12-17T04:50:14.776Z,-2.00
2022-12-17T04:53:20.049Z,-2.00
2022-12-17T04:56:25.151Z,-2.00
2022-12-17T04:59:29.749Z,-1.90
2022-12-17T05:02:40.952Z,-1.90
2022-12-17T05:05:47.090Z,-1.90
2022-12-17T05:08:51.531Z,-1.90
2022-12-17T05:11:56.996Z,-1.90
2022-12-17T05:15:01.317Z,-1.90
2022-12-17T05:18:07.384Z,-1.90
2022-12-17T05:21:12.917Z,-1.90
2022-12-17T05:24:17.365Z,-1.80
2022-12-17T05:27:22.247Z,-1.90
2022-12-17T05:30:27.484Z,-1.90
2022-12-17T05:33:34.057Z,-2.00
2022-12-17T05:36:53.302Z,-2.10
2022-12-17T05:39:58.205Z,-2.00
2022-12-17T05:43:13.320Z,-2.00
2022-12-17T05:46:18.852Z,-2.00
2022-12-17T05:49:36.431Z,-1.80
2022-12-17T05:52:41.280Z,-1.80
2022-12-17T05:55:45.682Z,-1.90
2022-12-17T05:58:50.385Z,-2.00
2022-12-17T06:01:54.875Z,-2.10
2022-12-17T06:05:02.503Z,-2.10
2022-12-17T06:08:07.283Z,-1.90
2022-12-17T06:11:12.689Z,-2.00
2022-12-17T06:14:17.113Z,-2.10
2022-12-17T06:17:21.546Z,-2.10
2022-12-17T06:20:29.369Z,-2.00
2022-12-17T06:23:34.325Z,-2.00
2022-12-17T06:26:38.944Z,-2.10
2022-12-17T06:29:43.358Z,-2.00
2022-12-17T06:32:47.993Z,-2.00
2022-12-17T06:35:53.922Z,-2.00
2022-12-17T06:38:58.577Z,-2.00
2022-12-17T06:42:04.517Z,-2.00
2022-12-17T06:45:08.977Z,-2.00
2022-12-17T06:48:20.421Z,-2.00
2022-12-17T06:51:26.719Z,-2.00
2022-12-17T06:54:31.074Z,-2.00
2022-12-17T06:57:40.507Z,-2.00
2022-12-17T07:00:46.076Z,-1.90
2022-12-17T07:03:50.607Z,-1.90
2022-12-17T07:06:56.677Z,-1.80
2022-12-17T07:10:01.072Z,-1.90
2022-12-17T07:13:05.363Z,-1.80
2022-12-17T07:16:10.395Z,-1.90
2022-12-17T07:19:14.792Z,-1.80
2022-12-17T07:22:26.168Z,-1.80
2022-12-17T07:25:30.676Z,-1.80
2022-12-17T07:28:35.180Z,-1.90
2022-12-17T07:31:39.849Z,-1.90
2022-12-17T07:34:44.319Z,-2.00
2022-12-17T07:37:50.333Z,-1.90
2022-12-17T07:40:54.794Z,-1.90
2022-12-17T07:43:59.184Z,-1.90
2022-12-17T07:47:04.129Z,-1.90
2022-12-17T07:50:08.606Z,-1.80
2022-12-17T07:53:22.477Z,-1.70
2022-12-17T07:56:26.780Z,-1.70
2022-12-17T07:59:31.230Z,-1.70
2022-12-17T08:02:35.892Z,-1.90
2022-12-17T08:05:40.640Z,-1.90
2022-12-17T08:08:46.899Z,-1.80
2022-12-17T08:11:51.416Z,-1.80
2022-12-17T08:14:55.891Z,-1.70
2022-12-17T08:18:00.215Z,-1.70
2022-12-17T08:21:04.798Z,-1.80
2022-12-17T08:24:11.025Z,-1.90
2022-12-17T08:27:15.246Z,-2.00
2022-12-17T08:30:19.929Z,-2.00
2022-12-17T08:33:24.914Z,-1.90
2022-12-17T08:36:29.364Z,-1.90
2022-12-17T08:39:35.483Z,-1.90
2022-12-17T08:42:40.442Z,-1.90
2022-12-17T08:45:45.126Z,-1.80
2022-12-17T08:48:49.469Z,-1.70
2022-12-17T08:51:54.043Z,-1.70
2022-12-17T08:55:00.075Z,-1.60
2022-12-17T08:58:11.777Z,-1.60
2022-12-17T09:01:27.454Z,-1.70
2022-12-17T09:04:31.884Z,-1.60
2022-12-17T09:07:36.271Z,-1.70
2022-12-17T09:10:42.298Z,-1.70
2022-12-17T09:13:46.692Z,-1.70
2022-12-17T09:16:51.497Z,-1.60
2022-12-17T09:19:56.474Z,-1.70
2022-12-17T09:23:00.913Z,-1.90
2022-12-17T09:26:12.830Z,-2.10
2022-12-17T09:29:28.807Z,-2.10
2022-12-17T09:32:33.832Z,-2.00
2022-12-17T09:35:39.890Z,-1.90
2022-12-17T09:38:44.303Z,-1.80
2022-12-17T09:42:02.128Z,-1.60
2022-12-17T09:45:12.047Z,-1.50
2022-12-17T09:48:24.261Z,-1.50
2022-12-17T09:51:41.006Z,-1.70
2022-12-17T09:54:53.078Z,-1.70
2022-12-17T09:58:02.857Z,-1.70
2022-12-17T10:01:08.644Z,-1.80
2022-12-17T10:04:13.462Z,-1.70
2022-12-17T10:07:18.672Z,-1.50
2022-12-17T10:10:34.797Z,-1.40
2022-12-17T10:13:42.190Z,-1.50
2022-12-17T10:16:48.985Z,-1.60
2022-12-17T10:19:56.213Z,-1.50
2022-12-17T10:23:02.623Z,-1.60
2022-12-17T10:26:11.724Z,-1.50
2022-12-17T10:29:23.614Z,-1.40
2022-12-17T10:32:30.496Z,-1.40
2022-12-17T10:35:38.357Z,-1.50
2022-12-17T10:38:45.460Z,-1.60
2022-12-17T10:41:54.265Z,-1.80
2022-12-17T10:45:00.424Z,-1.90
2022-12-17T10:48:10.421Z,-2.00
2022-12-17T10:51:15.007Z,-2.10
2022-12-17T10:54:42.613Z,-2.10
2022-12-17T10:57:52.519Z,-2.00
2022-12-17T11:01:03.217Z,-2.00
2022-12-17T11:04:09.138Z,-1.80
2022-12-17T11:07:29.866Z,-1.70
2022-12-17T11:10:39.343Z,-1.60
2022-12-17T11:13:48.825Z,-1.60
2022-12-17T11:16:59.775Z,-1.50
2022-12-17T11:20:13.794Z,-1.50
2022-12-17T11:23:21.098Z,-1.50
2022-12-17T11:26:29.319Z,-1.60
2022-12-17T11:29:33.920Z,-1.50
2022-12-17T11:32:56.168Z,-1.70
2022-12-17T11:36:08.708Z,-1.80
2022-12-17T11:39:19.797Z,-1.60
2022-12-17T11:42:34.845Z,-1.60
2022-12-17T11:45:47.551Z,-1.50
2022-12-17T11:48:57.924Z,-1.60
2022-12-17T11:52:11.831Z,-1.50
2022-12-17T11:55:25.048Z,-1.40
2022-12-17T11:58:38.982Z,-1.50
2022-12-17T12:01:52.444Z,-1.40
2022-12-17T12:05:17.188Z,-1.40
2022-12-17T12:08:31.743Z,-1.40
2022-12-17T12:11:49.002Z,-1.40
2022-12-17T12:15:02.721Z,-1.30
2022-12-17T12:18:11.690Z,-1.40
2022-12-17T12:21:41.194Z,-1.40
2022-12-17T12:25:02.289Z,-1.40
2022-12-17T12:28:14.388Z,-1.40
2022-12-17T12:31:25.690Z,-1.50
2022-12-17T12:34:35.524Z,-1.40
2022-12-17T12:37:42.606Z,-1.50
2022-12-17T12:40:57.486Z,-1.40
2022-12-17T12:44:09.380Z,-1.50
2022-12-17T12:47:22.419Z,-1.50
2022-12-17T12:50:39.117Z,-1.50
2022-12-17T12:54:18.463Z,-1.60
2022-12-17T12:57:23.384Z,-1.60
2022-12-17T13:00:45.168Z,-1.60
2022-12-17T13:03:51.994Z,-1.60
2022-12-17T13:06:45.551Z,-1.60
2022-12-17T13:09:42.201Z,-1.70
2022-12-17T13:12:33.612Z,-2.00
2022-12-17T13:15:31.590Z,-1.50
2022-12-17T13:18:25.249Z,-1.80
2022-12-17T13:21:27.339Z,-1.70
2022-12-17T13:24:25.277Z,-1.80
2022-12-17T13:27:31.186Z,-1.80
2022-12-17T13:30:35.341Z,-1.80
2022-12-17T13:33:30.790Z,-1.80
2022-12-17T13:36:25.292Z,-1.80
2022-12-17T13:39:24.359Z,-1.90
2022-12-17T13:42:21.225Z,-1.80
2022-12-17T13:45:16.801Z,-1.70
2022-12-17T13:48:04.245Z,-1.80
2022-12-17T13:50:56.215Z,-1.80
2022-12-17T13:53:53.222Z,-1.80
2022-12-17T13:56:41.547Z,-1.80
2022-12-17T13:59:29.879Z,-1.80
2022-12-17T14:02:27.123Z,-1.90
2022-12-17T14:05:25.339Z,-1.90
2022-12-17T14:08:17.641Z,-1.90
2022-12-17T14:11:23.240Z,-2.10
2022-12-17T14:14:20.936Z,-2.20
2022-12-17T14:17:15.923Z,-2.20
2022-12-17T14:20:08.335Z,-2.30
2022-12-17T14:22:57.641Z,-2.40
2022-12-17T14:25:45.711Z,-2.30
2022-12-17T14:28:36.005Z,-2.10
2022-12-17T14:31:27.226Z,-1.90
2022-12-17T14:34:15.393Z,-1.90
2022-12-17T14:37:03.837Z,-1.80
2022-12-17T14:39:51.724Z,-1.70
2022-12-17T14:42:40.322Z,-1.70
2022-12-17T14:45:29.379Z,-1.80
2022-12-17T14:48:17.085Z,-1.80
2022-12-17T14:51:04.433Z,-1.90
2022-12-17T14:53:52.871Z,-1.90
2022-12-17T14:56:40.659Z,-1.80
2022-12-17T14:59:41.080Z,-1.90
2022-12-17T15:02:31.434Z,-2.00
2022-12-17T15:05:19.251Z,-2.00
2022-12-17T15:08:06.677Z,-2.00
2022-12-17T15:10:57.694Z,-2.00
2022-12-17T15:13:45.237Z,-2.00
2022-12-17T15:16:32.824Z,-2.00
2022-12-17T15:19:22.630Z,-2.00
2022-12-17T15:22:15.537Z,-2.10
2022-12-17T15:25:03.005Z,-2.10
2022-12-17T15:27:51.772Z,-2.10
2022-12-17T15:30:40.123Z,-2.20
2022-12-17T15:33:27.665Z,-2.30
2022-12-17T15:36:15.048Z,-2.40
2022-12-17T15:39:02.329Z,-2.20
2022-12-17T15:42:07.112Z,-2.10
2022-12-17T15:44:55.633Z,-2.30
2022-12-17T15:47:42.972Z,-2.40
2022-12-17T15:50:30.355Z,-2.40
2022-12-17T15:53:17.824Z,-2.40
2022-12-17T15:56:05.808Z,-2.30
2022-12-17T15:58:53.457Z,-2.30
2022-12-17T16:01:42.116Z,-2.30
2022-12-17T16:04:29.895Z,-2.30
2022-12-17T16:07:17.379Z,-2.40
2022-12-17T16:10:05.824Z,-2.40
2022-12-17T16:12:53.084Z,-2.50
2022-12-17T16:15:40.630Z,-2.60
2022-12-17T16:18:29.266Z,-2.50
2022-12-17T16:21:16.403Z,-2.50
2022-12-17T16:24:03.771Z,-2.40
2022-12-17T16:26:50.965Z,-2.60
2022-12-17T16:29:38.297Z,-2.60
2022-12-17T16:32:25.513Z,-2.50
2022-12-17T16:35:14.354Z,-2.60
2022-12-17T16:38:01.653Z,-2.60
2022-12-17T16:40:49.205Z,-2.60
2022-12-17T16:43:36.394Z,-2.60
2022-12-17T16:46:27.204Z,-2.60
2022-12-17T16:49:16.371Z,-2.60
2022-12-17T16:52:05.670Z,-2.60
2022-12-17T16:54:53.125Z,-2.60
2022-12-17T16:57:40.638Z,-2.80
2022-12-17T17:00:27.958Z,-2.80
2022-12-17T17:03:19.628Z,-2.80
2022-12-17T17:06:07.765Z,-2.90
2022-12-17T17:08:56.423Z,-2.90
2022-12-17T17:11:46.996Z,-2.80
2022-12-17T17:14:38.256Z,-2.80
2022-12-17T17:17:54.219Z,-2.90
2022-12-17T17:20:32.993Z,-2.90
2022-12-17T17:23:20.214Z,-2.90
2022-12-17T17:26:09.572Z,-2.90
2022-12-17T17:28:57.389Z,-2.90
2022-12-17T17:34:52.094Z,-2.90
2022-12-17T17:37:39.567Z,-2.80
2022-12-17T17:40:26.903Z,-2.90
2022-12-17T17:43:15.297Z,-3.00
2022-12-17T17:46:07.850Z,-3.00
2022-12-17T17:48:57.746Z,-3.00
2022-12-17T17:52:08.979Z,-2.90
2022-12-17T17:54:53.156Z,-2.90
2022-12-17T17:57:40.528Z,-3.00
2022-12-17T18:00:29.557Z,-3.20
2022-12-17T18:03:17.040Z,-3.30
2022-12-17T18:06:05.241Z,-3.50
2022-12-17T18:08:52.836Z,-3.40
2022-12-17T18:11:42.053Z,-3.60
2022-12-17T18:14:30.164Z,-3.50
2022-12-17T18:17:19.180Z,-3.50
2022-12-17T18:20:09.466Z,-3.50
2022-12-17T18:22:56.970Z,-3.50
2022-12-17T18:25:44.360Z,-3.70
2022-12-17T18:28:31.781Z,-3.70
2022-12-17T18:31:21.179Z,-3.80
2022-12-17T18:34:11.837Z,-3.80
2022-12-17T18:36:59.074Z,-3.70
2022-12-17T18:39:47.301Z,-3.60
2022-12-17T18:42:51.819Z,-3.60
2022-12-17T18:45:39.007Z,-3.80
2022-12-17T18:48:26.494Z,-3.70
2022-12-17T18:51:15.237Z,-3.80
2022-12-17T18:54:04.641Z,-4.00
2022-12-17T18:57:00.928Z,-4.00
2022-12-17T18:59:49.590Z,-4.00
2022-12-17T19:02:36.831Z,-3.80
2022-12-17T19:05:24.389Z,-3.80
2022-12-17T19:08:13.044Z,-3.70
2022-12-17T19:11:05.204Z,-3.70
2022-12-17T19:13:52.539Z,-3.60
2022-12-17T19:16:40.089Z,-3.50
2022-12-17T19:19:27.688Z,-3.70
2022-12-17T19:22:15.164Z,-3.80
2022-12-17T19:25:04.136Z,-3.70
2022-12-17T19:27:51.641Z,-3.70
2022-12-17T19:30:39.166Z,-3.80
2022-12-17T19:33:26.739Z,-3.70
2022-12-17T19:36:16.345Z,-3.80
2022-12-17T19:39:06.612Z,-3.70
2022-12-17T19:41:55.255Z,-3.90
2022-12-17T19:44:42.443Z,-4.00
2022-12-17T19:47:30.549Z,-4.00
2022-12-17T19:50:17.853Z,-4.20
2022-12-17T19:53:05.277Z,-4.00
2022-12-17T19:55:52.436Z,-4.00
2022-12-17T19:58:42.123Z,-4.10
2022-12-17T20:01:31.997Z,-4.20
2022-12-17T20:04:19.632Z,-4.20
2022-12-17T20:07:07.032Z,-4.10
2022-12-17T20:09:54.473Z,-4.20
2022-12-17T20:12:41.953Z,-4.30
2022-12-17T20:15:31.268Z,-4.30
2022-12-17T20:18:19.013Z,-4.40
2022-12-17T20:21:07.422Z,-4.40
2022-12-17T20:23:54.733Z,-4.10
2022-12-17T20:26:42.826Z,-4.10
2022-12-17T20:29:30.578Z,-4.20
2022-12-17T20:32:21.130Z,-4.10
2022-12-17T20:35:09.419Z,-4.00
2022-12-17T20:37:56.824Z,-4.00
2022-12-17T20:40:44.330Z,-4.30
2022-12-17T20:43:31.885Z,-4.30
2022-12-17T20:46:21.574Z,-4.10
2022-12-17T20:49:12.549Z,-4.20
2022-12-17T20:52:00.049Z,-4.10
2022-12-17T20:54:47.701Z,-4.20
2022-12-17T20:57:35.105Z,-4.20
2022-12-17T21:00:22.524Z,-4.10
2022-12-17T21:03:10.559Z,-4.10
2022-12-17T21:06:05.949Z,-4.10
2022-12-17T21:08:55.175Z,-4.10
2022-12-17T21:11:43.482Z,-4.20
2022-12-17T21:14:35.519Z,-4.30
2022-12-17T21:17:23.166Z,-4.40
2022-12-17T21:20:12.318Z,-4.40
2022-12-17T21:23:01.111Z,-4.40
2022-12-17T21:25:48.505Z,-4.60
2022-12-17T21:28:37.838Z,-4.40
2022-12-17T21:31:27.187Z,-4.40
2022-12-17T21:34:17.342Z,-4.20
2022-12-17T21:37:05.009Z,-4.30
2022-12-17T21:40:00.033Z,-4.30
2022-12-17T21:43:02.524Z,-4.20
2022-12-17T21:45:49.888Z,-4.20
2022-12-17T21:48:42.244Z,-4.30
2022-12-17T21:51:30.481Z,-4.40
2022-12-17T21:54:19.926Z,-4.30
2022-12-17T21:57:08.932Z,-4.20
2022-12-17T21:59:56.258Z,-4.20
2022-12-17T22:02:44.103Z,-4.30
2022-12-17T22:05:31.470Z,-4.40
2022-12-17T22:08:19.434Z,-4.40
2022-12-17T22:11:11.100Z,-4.30
2022-12-17T22:14:09.552Z,-4.30
2022-12-17T22:16:58.668Z,-4.20
2022-12-17T22:19:46.293Z,-4.20
2022-12-17T22:22:33.613Z,-4.30
2022-12-17T22:25:20.765Z,-4.30
2022-12-17T22:28:08.129Z,-4.20
2022-12-17T22:31:14.442Z,-4.30
2022-12-17T22:35:34.519Z,-4.40
2022-12-17T22:40:51.062Z,-4.10
2022-12-17T22:44:29.535Z,-4.30
2022-12-17T22:44:43.848Z,-4.40
2022-12-17T22:46:39.713Z,-4.70
2022-12-17T22:49:26.997Z,-4.60
2022-12-17T22:52:14.246Z,-4.50
2022-12-17T22:55:04.083Z,-4.30
2022-12-17T22:57:51.733Z,-4.50
2022-12-17T23:00:39.161Z,-4.50
2022-12-17T23:03:28.329Z,-4.50
2022-12-17T23:06:17.577Z,-4.60
2022-12-17T23:09:04.804Z,-4.70
2022-12-17T23:11:52.287Z,-4.80
2022-12-17T23:14:39.629Z,-5.00
2022-12-17T23:17:26.672Z,-5.10
2022-12-17T23:20:15.912Z,-5.10
2022-12-17T23:23:03.413Z,-5.00
2022-12-17T23:25:50.785Z,-4.90
2022-12-17T23:28:39.506Z,-4.70
2022-12-17T23:31:28.635Z,-4.80
2022-12-17T23:34:16.468Z,-4.60
2022-12-17T23:37:05.006Z,-4.70
2022-12-17T23:39:52.313Z,-4.60
2022-12-17T23:42:40.025Z,-4.80
2022-12-17T23:45:28.460Z,-4.90
2022-12-17T23:48:15.788Z,-4.90
2022-12-17T23:51:03.653Z,-4.80
2022-12-17T23:53:52.285Z,-5.00
2022-12-17T23:56:39.743Z,-5.00
2022-12-17T23:59:27.854Z,-5.10
